Jining, China
Current Conditions -  °F | °C
As of 2:00 AM on Saturday 20 Dec 2014 (Local Time) from ZBHH Reporting Station
Clear Clear  
Wind Chill: -10°   Ceiling: Unl
Heat Index:   Visibility: 6mi
Dew Point: -8°   Wind: 4mph
Humidity: 72%   Direction: 90°E
Pressure: 30.3"   Gusts: NA
Location:  41.03°N, 113.07°E
Report Text: ZBHH 191800Z 09002MPS CAVOK M18/M22 Q1026 NOSIG
Loading
Personal Weather Stations






























Interactive Weather Map New forecast layout! Learn more

10-Day Weather Forecast

Advertisements
Track Severe Weather on mobile